sensor_id;sensor_type;location;lat;lon;timestamp;temperature;humidity
3488;DHT22;38546;48.170;11.724;2024-03-06T00:02:22;6.40;99.90
3488;DHT22;38546;48.170;11.724;2024-03-06T00:04:52;6.40;99.90
3488;DHT22;38546;48.170;11.724;2024-03-06T00:07:24;6.50;99.90
3488;DHT22;38546;48.170;11.724;2024-03-06T00:09:55;6.40;99.90
3488;DHT22;38546;48.170;11.724;2024-03-06T00:12:25;6.40;99.90
3488;DHT22;38546;48.170;11.724;2024-03-06T00:14:56;6.40;99.90
3488;DHT22;38546;48.170;11.724;2024-03-06T00:17:27;6.40;99.90
3488;DHT22;38546;48.170;11.724;2024-03-06T00:19:57;6.50;99.90
3488;DHT22;38546;48.170;11.724;2024-03-06T00:22:28;6.50;99.90
3488;DHT22;38546;48.170;11.724;2024-03-06T00:24:59;6.60;99.90
3488;DHT22;38546;48.170;11.724;2024-03-06T00:27:29;6.50;99.90
3488;DHT22;38546;48.170;11.724;2024-03-06T00:30:00;6.40;99.90
3488;DHT22;38546;48.170;11.724;2024-03-06T00:32:31;6.40;99.90
3488;DHT22;38546;48.170;11.724;2024-03-06T00:35:02;6.40;99.90
3488;DHT22;38546;48.170;11.724;2024-03-06T00:37:34;6.50;99.90
3488;DHT22;38546;48.170;11.724;2024-03-06T00:40:06;6.40;99.90
3488;DHT22;38546;48.170;11.724;2024-03-06T00:42:38;6.40;99.90
3488;DHT22;38546;48.170;11.724;2024-03-06T00:45:11;6.40;99.90
3488;DHT22;38546;48.170;11.724;2024-03-06T00:47:41;6.60;99.90
3488;DHT22;38546;48.170;11.724;2024-03-06T00:50:12;6.60;99.90
3488;DHT22;38546;48.170;11.724;2024-03-06T00:52:43;6.70;99.90
3488;DHT22;38546;48.170;11.724;2024-03-06T00:55:14;6.60;99.90
3488;DHT22;38546;48.170;11.724;2024-03-06T00:57:45;6.50;99.90
3488;DHT22;38546;48.170;11.724;2024-03-06T01:00:17;6.50;99.90
3488;DHT22;38546;48.170;11.724;2024-03-06T01:02:49;6.50;99.90
3488;DHT22;38546;48.170;11.724;2024-03-06T01:05:19;6.50;99.90
3488;DHT22;38546;48.170;11.724;2024-03-06T01:07:50;6.50;99.90
3488;DHT22;38546;48.170;11.724;2024-03-06T01:10:21;6.50;99.90
3488;DHT22;38546;48.170;11.724;2024-03-06T01:12:51;6.60;99.90
3488;DHT22;38546;48.170;11.724;2024-03-06T01:15:22;6.50;99.90
3488;DHT22;38546;48.170;11.724;2024-03-06T01:17:54;6.50;99.90
3488;DHT22;38546;48.170;11.724;2024-03-06T01:20:25;6.50;99.90
3488;DHT22;38546;48.170;11.724;2024-03-06T01:22:55;6.50;99.90
3488;DHT22;38546;48.170;11.724;2024-03-06T01:25:26;6.60;99.90
3488;DHT22;38546;48.170;11.724;2024-03-06T01:27:57;6.70;99.90
3488;DHT22;38546;48.170;11.724;2024-03-06T01:30:27;6.60;99.90
3488;DHT22;38546;48.170;11.724;2024-03-06T01:32:58;6.60;99.90
3488;DHT22;38546;48.170;11.724;2024-03-06T01:35:29;6.60;99.90
3488;DHT22;38546;48.170;11.724;2024-03-06T01:38:00;6.70;99.90
3488;DHT22;38546;48.170;11.724;2024-03-06T01:40:31;6.60;99.90
3488;DHT22;38546;48.170;11.724;2024-03-06T01:43:02;6.70;99.90
3488;DHT22;38546;48.170;11.724;2024-03-06T01:45:33;6.70;99.90
3488;DHT22;38546;48.170;11.724;2024-03-06T01:48:06;6.60;99.90
3488;DHT22;38546;48.170;11.724;2024-03-06T01:50:38;6.70;99.90
3488;DHT22;38546;48.170;11.724;2024-03-06T01:53:10;6.70;99.90
3488;DHT22;38546;48.170;11.724;2024-03-06T01:55:41;6.70;99.90
3488;DHT22;38546;48.170;11.724;2024-03-06T01:58:12;6.70;99.90
3488;DHT22;38546;48.170;11.724;2024-03-06T02:00:43;6.60;99.90
3488;DHT22;38546;48.170;11.724;2024-03-06T02:03:14;6.60;99.90
3488;DHT22;38546;48.170;11.724;2024-03-06T02:05:45;6.60;99.90
3488;DHT22;38546;48.170;11.724;2024-03-06T02:08:16;6.60;99.90
3488;DHT22;38546;48.170;11.724;2024-03-06T02:10:46;6.60;99.90
3488;DHT22;38546;48.170;11.724;2024-03-06T02:13:17;6.60;99.90
3488;DHT22;38546;48.170;11.724;2024-03-06T02:15:48;6.70;99.90
3488;DHT22;38546;48.170;11.724;2024-03-06T02:18:19;6.60;99.90
3488;DHT22;38546;48.170;11.724;2024-03-06T02:20:50;6.60;99.90
3488;DHT22;38546;48.170;11.724;2024-03-06T02:23:21;6.70;99.90
3488;DHT22;38546;48.170;11.724;2024-03-06T02:25:52;6.70;99.90
3488;DHT22;38546;48.170;11.724;2024-03-06T02:28:23;6.80;99.90
3488;DHT22;38546;48.170;11.724;2024-03-06T02:30:53;6.80;99.90
3488;DHT22;38546;48.170;11.724;2024-03-06T02:33:24;6.60;99.90
3488;DHT22;38546;48.170;11.724;2024-03-06T02:35:55;6.60;99.90
3488;DHT22;38546;48.170;11.724;2024-03-06T02:38:25;6.50;99.90
3488;DHT22;38546;48.170;11.724;2024-03-06T02:40:56;6.40;99.90
3488;DHT22;38546;48.170;11.724;2024-03-06T02:43:27;6.50;99.90
3488;DHT22;38546;48.170;11.724;2024-03-06T02:45:57;6.60;99.90
3488;DHT22;38546;48.170;11.724;2024-03-06T02:48:28;6.50;99.90
3488;DHT22;38546;48.170;11.724;2024-03-06T02:51:00;6.60;99.90
3488;DHT22;38546;48.170;11.724;2024-03-06T02:53:30;6.60;99.90
3488;DHT22;38546;48.170;11.724;2024-03-06T02:56:01;6.50;99.90
3488;DHT22;38546;48.170;11.724;2024-03-06T02:58:32;6.50;99.90
3488;DHT22;38546;48.170;11.724;2024-03-06T03:01:05;6.50;99.90
3488;DHT22;38546;48.170;11.724;2024-03-06T03:03:36;6.50;99.90
3488;DHT22;38546;48.170;11.724;2024-03-06T03:06:07;6.50;99.90
3488;DHT22;38546;48.170;11.724;2024-03-06T03:08:39;6.50;99.90
3488;DHT22;38546;48.170;11.724;2024-03-06T03:11:10;6.50;99.90
3488;DHT22;38546;48.170;11.724;2024-03-06T03:13:40;6.40;99.90
3488;DHT22;38546;48.170;11.724;2024-03-06T03:16:18;6.40;99.90
3488;DHT22;38546;48.170;11.724;2024-03-06T03:18:50;6.40;99.90
3488;DHT22;38546;48.170;11.724;2024-03-06T03:21:21;6.40;99.90
3488;DHT22;38546;48.170;11.724;2024-03-06T03:23:54;6.40;99.90
3488;DHT22;38546;48.170;11.724;2024-03-06T03:26:24;6.30;99.90
3488;DHT22;38546;48.170;11.724;2024-03-06T03:28:55;6.30;99.90
3488;DHT22;38546;48.170;11.724;2024-03-06T03:31:26;6.30;99.90
3488;DHT22;38546;48.170;11.724;2024-03-06T03:33:56;6.20;99.90
3488;DHT22;38546;48.170;11.724;2024-03-06T03:36:27;6.20;99.90
3488;DHT22;38546;48.170;11.724;2024-03-06T03:38:58;6.20;99.90
3488;DHT22;38546;48.170;11.724;2024-03-06T03:41:29;6.10;99.90
3488;DHT22;38546;48.170;11.724;2024-03-06T03:43:59;6.10;99.90
3488;DHT22;38546;48.170;11.724;2024-03-06T03:46:30;6.10;99.90
3488;DHT22;38546;48.170;11.724;2024-03-06T03:49:00;6.10;99.90
3488;DHT22;38546;48.170;11.724;2024-03-06T03:51:31;6.10;99.90
3488;DHT22;38546;48.170;11.724;2024-03-06T03:54:02;6.10;99.90
3488;DHT22;38546;48.170;11.724;2024-03-06T03:56:34;6.10;99.90
3488;DHT22;38546;48.170;11.724;2024-03-06T03:59:05;6.10;99.90
3488;DHT22;38546;48.170;11.724;2024-03-06T04:01:36;6.10;99.90
3488;DHT22;38546;48.170;11.724;2024-03-06T04:04:06;6.10;99.90
3488;DHT22;38546;48.170;11.724;2024-03-06T04:06:38;6.00;99.90
3488;DHT22;38546;48.170;11.724;2024-03-06T04:09:09;6.00;99.90
3488;DHT22;38546;48.170;11.724;2024-03-06T04:11:45;6.00;99.90
3488;DHT22;38546;48.170;11.724;2024-03-06T04:14:15;5.90;99.90
3488;DHT22;38546;48.170;11.724;2024-03-06T04:16:46;5.90;99.90
3488;DHT22;38546;48.170;11.724;2024-03-06T04:19:17;5.90;99.90
3488;DHT22;38546;48.170;11.724;2024-03-06T04:21:49;5.90;99.90
3488;DHT22;38546;48.170;11.724;2024-03-06T04:24:19;5.80;99.90
3488;DHT22;38546;48.170;11.724;2024-03-06T04:26:50;5.80;99.90
3488;DHT22;38546;48.170;11.724;2024-03-06T04:29:20;5.80;99.90
3488;DHT22;38546;48.170;11.724;2024-03-06T04:31:51;5.70;99.90
3488;DHT22;38546;48.170;11.724;2024-03-06T04:34:22;5.70;99.90
3488;DHT22;38546;48.170;11.724;2024-03-06T04:36:53;5.70;99.90
3488;DHT22;38546;48.170;11.724;2024-03-06T04:39:24;5.60;99.90
3488;DHT22;38546;48.170;11.724;2024-03-06T04:41:55;5.60;99.90
3488;DHT22;38546;48.170;11.724;2024-03-06T04:44:25;5.60;99.90
3488;DHT22;38546;48.170;11.724;2024-03-06T04:46:56;5.60;99.90
3488;DHT22;38546;48.170;11.724;2024-03-06T04:49:27;5.50;99.90
3488;DHT22;38546;48.170;11.724;2024-03-06T04:51:57;5.50;99.90
3488;DHT22;38546;48.170;11.724;2024-03-06T04:54:28;5.40;99.90
3488;DHT22;38546;48.170;11.724;2024-03-06T04:56:59;5.30;99.90
3488;DHT22;38546;48.170;11.724;2024-03-06T04:59:30;5.30;99.90
3488;DHT22;38546;48.170;11.724;2024-03-06T05:02:00;5.30;99.90
3488;DHT22;38546;48.170;11.724;2024-03-06T05:04:33;5.20;99.90
3488;DHT22;38546;48.170;11.724;2024-03-06T05:07:04;5.20;99.90
3488;DHT22;38546;48.170;11.724;2024-03-06T05:09:35;5.20;99.90
3488;DHT22;38546;48.170;11.724;2024-03-06T05:12:07;5.20;99.90
3488;DHT22;38546;48.170;11.724;2024-03-06T05:14:38;5.10;99.90
3488;DHT22;38546;48.170;11.724;2024-03-06T05:17:09;5.10;99.90
3488;DHT22;38546;48.170;11.724;2024-03-06T05:19:40;5.10;99.90
3488;DHT22;38546;48.170;11.724;2024-03-06T05:22:11;5.10;99.90
3488;DHT22;38546;48.170;11.724;2024-03-06T05:24:42;5.10;99.90
3488;DHT22;38546;48.170;11.724;2024-03-06T05:27:13;5.10;99.90
3488;DHT22;38546;48.170;11.724;2024-03-06T05:29:47;5.10;99.90
3488;DHT22;38546;48.170;11.724;2024-03-06T05:32:18;5.10;99.90
3488;DHT22;38546;48.170;11.724;2024-03-06T05:34:48;5.10;99.90
3488;DHT22;38546;48.170;11.724;2024-03-06T05:37:19;5.10;99.90
3488;DHT22;38546;48.170;11.724;2024-03-06T05:39:50;5.10;99.90
3488;DHT22;38546;48.170;11.724;2024-03-06T05:42:21;5.00;99.90
3488;DHT22;38546;48.170;11.724;2024-03-06T05:44:51;5.00;99.90
3488;DHT22;38546;48.170;11.724;2024-03-06T05:47:25;5.00;99.90
3488;DHT22;38546;48.170;11.724;2024-03-06T05:49:55;5.00;99.90
3488;DHT22;38546;48.170;11.724;2024-03-06T05:52:26;5.00;99.90
3488;DHT22;38546;48.170;11.724;2024-03-06T05:54:57;5.00;99.90
3488;DHT22;38546;48.170;11.724;2024-03-06T05:57:27;4.90;99.90
3488;DHT22;38546;48.170;11.724;2024-03-06T05:59:58;4.90;99.90
3488;DHT22;38546;48.170;11.724;2024-03-06T06:02:29;4.90;99.90
3488;DHT22;38546;48.170;11.724;2024-03-06T06:04:59;4.90;99.90
3488;DHT22;38546;48.170;11.724;2024-03-06T06:07:31;4.80;99.90
3488;DHT22;38546;48.170;11.724;2024-03-06T06:10:02;4.80;99.90
3488;DHT22;38546;48.170;11.724;2024-03-06T06:12:35;4.80;99.90
3488;DHT22;38546;48.170;11.724;2024-03-06T06:15:06;4.80;99.90
3488;DHT22;38546;48.170;11.724;2024-03-06T06:17:38;4.80;99.90
3488;DHT22;38546;48.170;11.724;2024-03-06T06:20:09;4.80;99.90
3488;DHT22;38546;48.170;11.724;2024-03-06T06:22:45;4.80;99.90
3488;DHT22;38546;48.170;11.724;2024-03-06T06:25:15;4.80;99.90
3488;DHT22;38546;48.170;11.724;2024-03-06T06:27:46;4.80;99.90
3488;DHT22;38546;48.170;11.724;2024-03-06T06:30:19;4.90;99.90
3488;DHT22;38546;48.170;11.724;2024-03-06T06:32:50;4.90;99.90
3488;DHT22;38546;48.170;11.724;2024-03-06T06:35:21;4.90;99.90
3488;DHT22;38546;48.170;11.724;2024-03-06T06:37:53;4.80;99.90
3488;DHT22;38546;48.170;11.724;2024-03-06T06:40:23;4.80;99.90
3488;DHT22;38546;48.170;11.724;2024-03-06T06:42:54;4.70;99.90
3488;DHT22;38546;48.170;11.724;2024-03-06T06:45:25;4.70;99.90
3488;DHT22;38546;48.170;11.724;2024-03-06T06:47:55;4.70;99.90
3488;DHT22;38546;48.170;11.724;2024-03-06T06:50:26;4.60;99.90
3488;DHT22;38546;48.170;11.724;2024-03-06T06:52:57;4.70;99.90
3488;DHT22;38546;48.170;11.724;2024-03-06T06:55:29;4.70;99.90
3488;DHT22;38546;48.170;11.724;2024-03-06T06:58:01;4.70;99.90
3488;DHT22;38546;48.170;11.724;2024-03-06T07:00:33;4.80;99.90
3488;DHT22;38546;48.170;11.724;2024-03-06T07:03:04;4.80;99.90
3488;DHT22;38546;48.170;11.724;2024-03-06T07:05:35;4.80;99.90
3488;DHT22;38546;48.170;11.724;2024-03-06T07:08:06;4.90;99.90
3488;DHT22;38546;48.170;11.724;2024-03-06T07:10:37;4.90;99.90
3488;DHT22;38546;48.170;11.724;2024-03-06T07:13:07;4.90;99.90
3488;DHT22;38546;48.170;11.724;2024-03-06T07:15:38;4.90;99.90
3488;DHT22;38546;48.170;11.724;2024-03-06T07:18:09;4.90;99.90
3488;DHT22;38546;48.170;11.724;2024-03-06T07:20:40;4.90;99.90
3488;DHT22;38546;48.170;11.724;2024-03-06T07:23:11;4.80;99.90
3488;DHT22;38546;48.170;11.724;2024-03-06T07:25:41;4.80;99.90
3488;DHT22;38546;48.170;11.724;2024-03-06T07:28:12;4.80;99.90
3488;DHT22;38546;48.170;11.724;2024-03-06T07:30:43;4.80;99.90
3488;DHT22;38546;48.170;11.724;2024-03-06T07:33:14;4.80;99.90
3488;DHT22;38546;48.170;11.724;2024-03-06T07:35:44;4.80;99.90
3488;DHT22;38546;48.170;11.724;2024-03-06T07:38:15;4.80;99.90
3488;DHT22;38546;48.170;11.724;2024-03-06T07:40:46;4.80;99.90
3488;DHT22;38546;48.170;11.724;2024-03-06T07:43:16;4.80;99.90
3488;DHT22;38546;48.170;11.724;2024-03-06T07:45:48;4.80;99.90
3488;DHT22;38546;48.170;11.724;2024-03-06T07:48:19;4.80;99.90
3488;DHT22;38546;48.170;11.724;2024-03-06T07:50:50;4.80;99.90
3488;DHT22;38546;48.170;11.724;2024-03-06T07:53:20;4.90;99.90
3488;DHT22;38546;48.170;11.724;2024-03-06T07:55:51;4.90;99.90
3488;DHT22;38546;48.170;11.724;2024-03-06T07:58:22;5.00;99.90
3488;DHT22;38546;48.170;11.724;2024-03-06T08:00:52;4.90;99.90
3488;DHT22;38546;48.170;11.724;2024-03-06T08:03:25;5.00;99.90
3488;DHT22;38546;48.170;11.724;2024-03-06T08:05:56;5.00;99.90
3488;DHT22;38546;48.170;11.724;2024-03-06T08:08:27;5.10;99.90
3488;DHT22;38546;48.170;11.724;2024-03-06T08:10:57;5.10;99.90
3488;DHT22;38546;48.170;11.724;2024-03-06T08:13:28;5.10;99.90
3488;DHT22;38546;48.170;11.724;2024-03-06T08:15:59;5.10;99.90
3488;DHT22;38546;48.170;11.724;2024-03-06T08:18:30;5.10;99.90
3488;DHT22;38546;48.170;11.724;2024-03-06T08:21:02;5.10;99.90
3488;DHT22;38546;48.170;11.724;2024-03-06T08:23:35;5.20;99.90
3488;DHT22;38546;48.170;11.724;2024-03-06T08:26:06;5.10;99.90
3488;DHT22;38546;48.170;11.724;2024-03-06T08:28:38;5.20;99.90
3488;DHT22;38546;48.170;11.724;2024-03-06T08:31:08;5.20;99.90
3488;DHT22;38546;48.170;11.724;2024-03-06T08:33:39;5.20;99.90
3488;DHT22;38546;48.170;11.724;2024-03-06T08:36:10;5.20;99.90
3488;DHT22;38546;48.170;11.724;2024-03-06T08:38:40;5.20;99.90
3488;DHT22;38546;48.170;11.724;2024-03-06T08:41:11;5.30;99.90
3488;DHT22;38546;48.170;11.724;2024-03-06T08:43:42;5.30;99.90
3488;DHT22;38546;48.170;11.724;2024-03-06T08:46:12;5.30;99.90
3488;DHT22;38546;48.170;11.724;2024-03-06T08:48:43;5.30;99.90
3488;DHT22;38546;48.170;11.724;2024-03-06T08:51:14;5.30;99.90
3488;DHT22;38546;48.170;11.724;2024-03-06T08:53:45;5.40;99.90
3488;DHT22;38546;48.170;11.724;2024-03-06T08:56:16;5.40;99.90
3488;DHT22;38546;48.170;11.724;2024-03-06T08:58:46;5.40;99.90
3488;DHT22;38546;48.170;11.724;2024-03-06T09:01:17;5.50;99.90
3488;DHT22;38546;48.170;11.724;2024-03-06T09:03:48;5.60;99.90
3488;DHT22;38546;48.170;11.724;2024-03-06T09:06:18;5.60;99.90
3488;DHT22;38546;48.170;11.724;2024-03-06T09:08:49;5.60;99.90
3488;DHT22;38546;48.170;11.724;2024-03-06T09:11:20;5.60;99.90
3488;DHT22;38546;48.170;11.724;2024-03-06T09:13:50;5.70;99.90
3488;DHT22;38546;48.170;11.724;2024-03-06T09:16:21;5.70;99.90
3488;DHT22;38546;48.170;11.724;2024-03-06T09:18:52;5.70;99.90
3488;DHT22;38546;48.170;11.724;2024-03-06T09:21:23;5.70;99.90
3488;DHT22;38546;48.170;11.724;2024-03-06T09:23:54;5.70;99.90
3488;DHT22;38546;48.170;11.724;2024-03-06T09:26:24;5.70;99.90
3488;DHT22;38546;48.170;11.724;2024-03-06T09:28:55;5.70;99.90
3488;DHT22;38546;48.170;11.724;2024-03-06T09:31:25;5.70;99.90
3488;DHT22;38546;48.170;11.724;2024-03-06T09:33:58;5.70;99.90
3488;DHT22;38546;48.170;11.724;2024-03-06T09:36:28;5.70;99.90
3488;DHT22;38546;48.170;11.724;2024-03-06T09:38:59;5.80;99.90
3488;DHT22;38546;48.170;11.724;2024-03-06T09:41:30;5.80;99.90
3488;DHT22;38546;48.170;11.724;2024-03-06T09:44:02;5.90;99.90
3488;DHT22;38546;48.170;11.724;2024-03-06T09:46:33;5.90;99.90
3488;DHT22;38546;48.170;11.724;2024-03-06T09:49:07;6.00;99.90
3488;DHT22;38546;48.170;11.724;2024-03-06T09:51:45;6.00;99.90
3488;DHT22;38546;48.170;11.724;2024-03-06T09:54:17;6.00;99.90
3488;DHT22;38546;48.170;11.724;2024-03-06T09:56:47;6.00;99.90
3488;DHT22;38546;48.170;11.724;2024-03-06T09:59:18;6.00;99.90
3488;DHT22;38546;48.170;11.724;2024-03-06T10:01:56;6.00;99.90
3488;DHT22;38546;48.170;11.724;2024-03-06T10:04:28;6.00;99.90
3488;DHT22;38546;48.170;11.724;2024-03-06T10:06:59;6.00;99.90
3488;DHT22;38546;48.170;11.724;2024-03-06T10:09:31;6.00;99.90
3488;DHT22;38546;48.170;11.724;2024-03-06T10:12:03;6.00;99.90
3488;DHT22;38546;48.170;11.724;2024-03-06T10:14:36;6.00;99.90
3488;DHT22;38546;48.170;11.724;2024-03-06T10:17:07;6.00;99.90
3488;DHT22;38546;48.170;11.724;2024-03-06T10:19:37;6.00;99.90
3488;DHT22;38546;48.170;11.724;2024-03-06T10:22:10;6.10;99.90
3488;DHT22;38546;48.170;11.724;2024-03-06T10:24:40;6.10;99.90
3488;DHT22;38546;48.170;11.724;2024-03-06T10:27:15;6.10;99.90
3488;DHT22;38546;48.170;11.724;2024-03-06T10:30:01;6.10;99.90
3488;DHT22;38546;48.170;11.724;2024-03-06T10:32:33;6.10;99.90
3488;DHT22;38546;48.170;11.724;2024-03-06T10:35:05;6.20;99.90
3488;DHT22;38546;48.170;11.724;2024-03-06T10:37:37;6.10;99.90
3488;DHT22;38546;48.170;11.724;2024-03-06T10:40:14;6.20;99.90
3488;DHT22;38546;48.170;11.724;2024-03-06T10:42:46;6.20;99.90
3488;DHT22;38546;48.170;11.724;2024-03-06T10:45:21;6.20;99.90
3488;DHT22;38546;48.170;11.724;2024-03-06T10:47:54;6.20;99.90
3488;DHT22;38546;48.170;11.724;2024-03-06T10:50:26;6.30;99.90
3488;DHT22;38546;48.170;11.724;2024-03-06T10:52:57;6.30;99.90
3488;DHT22;38546;48.170;11.724;2024-03-06T10:55:30;6.20;99.90
3488;DHT22;38546;48.170;11.724;2024-03-06T10:58:08;6.20;99.90
3488;DHT22;38546;48.170;11.724;2024-03-06T11:00:41;6.20;99.90
3488;DHT22;38546;48.170;11.724;2024-03-06T11:03:16;6.10;99.90
3488;DHT22;38546;48.170;11.724;2024-03-06T11:05:48;6.10;99.90
3488;DHT22;38546;48.170;11.724;2024-03-06T11:08:21;6.20;99.90
3488;DHT22;38546;48.170;11.724;2024-03-06T11:10:53;6.30;99.90
3488;DHT22;38546;48.170;11.724;2024-03-06T11:13:24;6.30;99.90
3488;DHT22;38546;48.170;11.724;2024-03-06T11:16:01;6.30;99.90
3488;DHT22;38546;48.170;11.724;2024-03-06T11:18:41;6.40;99.90
3488;DHT22;38546;48.170;11.724;2024-03-06T11:21:34;6.40;99.90
3488;DHT22;38546;48.170;11.724;2024-03-06T11:24:13;6.40;99.90
3488;DHT22;38546;48.170;11.724;2024-03-06T11:26:49;6.40;99.90
3488;DHT22;38546;48.170;11.724;2024-03-06T11:30:07;6.40;99.90
3488;DHT22;38546;48.170;11.724;2024-03-06T11:33:00;6.40;99.90
3488;DHT22;38546;48.170;11.724;2024-03-06T11:35:31;6.40;99.90
3488;DHT22;38546;48.170;11.724;2024-03-06T11:38:02;6.40;99.90
3488;DHT22;38546;48.170;11.724;2024-03-06T11:40:43;6.40;99.90
3488;DHT22;38546;48.170;11.724;2024-03-06T11:43:27;6.40;99.90
3488;DHT22;38546;48.170;11.724;2024-03-06T11:46:10;6.40;99.90
3488;DHT22;38546;48.170;11.724;2024-03-06T11:48:41;6.50;99.90
3488;DHT22;38546;48.170;11.724;2024-03-06T11:51:13;6.40;99.90
3488;DHT22;38546;48.170;11.724;2024-03-06T11:53:43;6.50;99.90
3488;DHT22;38546;48.170;11.724;2024-03-06T11:56:15;6.50;99.90
3488;DHT22;38546;48.170;11.724;2024-03-06T11:58:47;6.40;99.90
3488;DHT22;38546;48.170;11.724;2024-03-06T12:01:18;6.40;99.90
3488;DHT22;38546;48.170;11.724;2024-03-06T12:03:50;6.40;99.90
3488;DHT22;38546;48.170;11.724;2024-03-06T12:06:20;6.50;99.90
3488;DHT22;38546;48.170;11.724;2024-03-06T12:08:53;6.50;99.90
3488;DHT22;38546;48.170;11.724;2024-03-06T12:11:25;6.50;99.90
3488;DHT22;38546;48.170;11.724;2024-03-06T12:13:56;6.50;99.90
3488;DHT22;38546;48.170;11.724;2024-03-06T12:16:27;6.50;99.90
3488;DHT22;38546;48.170;11.724;2024-03-06T12:18:58;6.50;99.90
3488;DHT22;38546;48.170;11.724;2024-03-06T12:21:32;6.40;99.90
3488;DHT22;38546;48.170;11.724;2024-03-06T12:24:08;6.30;99.90
3488;DHT22;38546;48.170;11.724;2024-03-06T12:26:39;6.30;99.90
3488;DHT22;38546;48.170;11.724;2024-03-06T12:29:17;6.30;99.90
3488;DHT22;38546;48.170;11.724;2024-03-06T12:31:49;6.30;99.90
3488;DHT22;38546;48.170;11.724;2024-03-06T12:34:20;6.20;99.90
3488;DHT22;38546;48.170;11.724;2024-03-06T12:36:51;6.20;99.90
3488;DHT22;38546;48.170;11.724;2024-03-06T12:39:23;6.30;99.90
3488;DHT22;38546;48.170;11.724;2024-03-06T12:41:54;6.20;99.90
3488;DHT22;38546;48.170;11.724;2024-03-06T12:44:25;6.30;99.90
3488;DHT22;38546;48.170;11.724;2024-03-06T12:46:55;6.30;99.90
3488;DHT22;38546;48.170;11.724;2024-03-06T12:49:26;6.30;99.90
3488;DHT22;38546;48.170;11.724;2024-03-06T12:51:57;6.30;99.90
3488;DHT22;38546;48.170;11.724;2024-03-06T12:54:27;6.30;99.90
3488;DHT22;38546;48.170;11.724;2024-03-06T12:56:58;6.40;99.90
3488;DHT22;38546;48.170;11.724;2024-03-06T12:59:29;6.30;99.90
3488;DHT22;38546;48.170;11.724;2024-03-06T13:01:59;6.50;99.90
3488;DHT22;38546;48.170;11.724;2024-03-06T13:04:30;6.40;99.90
3488;DHT22;38546;48.170;11.724;2024-03-06T13:07:01;6.30;99.90
3488;DHT22;38546;48.170;11.724;2024-03-06T13:09:33;6.30;99.90
3488;DHT22;38546;48.170;11.724;2024-03-06T13:12:04;6.30;99.90
3488;DHT22;38546;48.170;11.724;2024-03-06T13:14:36;6.30;99.90
3488;DHT22;38546;48.170;11.724;2024-03-06T13:17:07;6.20;99.90
3488;DHT22;38546;48.170;11.724;2024-03-06T13:19:38;6.20;99.90
3488;DHT22;38546;48.170;11.724;2024-03-06T13:22:08;6.20;99.90
3488;DHT22;38546;48.170;11.724;2024-03-06T13:24:39;6.30;99.90
3488;DHT22;38546;48.170;11.724;2024-03-06T13:27:09;6.30;99.90
3488;DHT22;38546;48.170;11.724;2024-03-06T13:29:40;6.40;99.90
3488;DHT22;38546;48.170;11.724;2024-03-06T13:32:11;6.40;99.90
3488;DHT22;38546;48.170;11.724;2024-03-06T13:34:41;6.50;99.90
3488;DHT22;38546;48.170;11.724;2024-03-06T13:37:12;6.50;99.90
3488;DHT22;38546;48.170;11.724;2024-03-06T13:39:43;6.50;99.90
3488;DHT22;38546;48.170;11.724;2024-03-06T13:42:13;6.50;99.90
3488;DHT22;38546;48.170;11.724;2024-03-06T13:44:44;6.50;99.90
3488;DHT22;38546;48.170;11.724;2024-03-06T13:47:15;6.60;99.90
3488;DHT22;38546;48.170;11.724;2024-03-06T13:49:49;6.50;99.90
3488;DHT22;38546;48.170;11.724;2024-03-06T13:52:19;6.60;99.90
3488;DHT22;38546;48.170;11.724;2024-03-06T13:54:51;6.60;99.90
3488;DHT22;38546;48.170;11.724;2024-03-06T13:57:22;6.60;99.90
3488;DHT22;38546;48.170;11.724;2024-03-06T13:59:52;6.60;99.90
3488;DHT22;38546;48.170;11.724;2024-03-06T14:02:23;6.60;99.90
3488;DHT22;38546;48.170;11.724;2024-03-06T14:04:54;6.60;99.90
3488;DHT22;38546;48.170;11.724;2024-03-06T14:07:24;6.60;99.90
3488;DHT22;38546;48.170;11.724;2024-03-06T14:09:55;6.70;99.90
3488;DHT22;38546;48.170;11.724;2024-03-06T14:12:27;6.70;99.90
3488;DHT22;38546;48.170;11.724;2024-03-06T14:14:58;6.70;99.90
3488;DHT22;38546;48.170;11.724;2024-03-06T14:17:28;6.70;99.90
3488;DHT22;38546;48.170;11.724;2024-03-06T14:19:59;6.70;99.90
3488;DHT22;38546;48.170;11.724;2024-03-06T14:22:29;6.70;99.90
3488;DHT22;38546;48.170;11.724;2024-03-06T14:25:00;6.70;99.90
3488;DHT22;38546;48.170;11.724;2024-03-06T14:27:31;6.70;99.90
3488;DHT22;38546;48.170;11.724;2024-03-06T14:30:02;6.80;99.90
3488;DHT22;38546;48.170;11.724;2024-03-06T14:32:42;6.80;99.90
3488;DHT22;38546;48.170;11.724;2024-03-06T14:35:13;6.80;99.90
3488;DHT22;38546;48.170;11.724;2024-03-06T14:37:45;6.80;99.90
3488;DHT22;38546;48.170;11.724;2024-03-06T14:40:16;6.80;99.90
3488;DHT22;38546;48.170;11.724;2024-03-06T14:42:46;6.80;99.90
3488;DHT22;38546;48.170;11.724;2024-03-06T14:45:17;6.80;99.90
3488;DHT22;38546;48.170;11.724;2024-03-06T14:47:48;6.80;99.90
3488;DHT22;38546;48.170;11.724;2024-03-06T14:50:18;6.80;99.90
3488;DHT22;38546;48.170;11.724;2024-03-06T14:52:49;6.70;99.90
3488;DHT22;38546;48.170;11.724;2024-03-06T14:55:19;6.70;99.90
3488;DHT22;38546;48.170;11.724;2024-03-06T14:57:50;6.80;99.90
3488;DHT22;38546;48.170;11.724;2024-03-06T15:00:21;6.70;99.90
3488;DHT22;38546;48.170;11.724;2024-03-06T15:02:51;6.70;99.90
3488;DHT22;38546;48.170;11.724;2024-03-06T15:05:22;6.70;99.90
3488;DHT22;38546;48.170;11.724;2024-03-06T15:07:53;6.60;99.90
3488;DHT22;38546;48.170;11.724;2024-03-06T15:10:24;6.60;99.90
3488;DHT22;38546;48.170;11.724;2024-03-06T15:12:54;6.50;99.90
3488;DHT22;38546;48.170;11.724;2024-03-06T15:15:25;6.50;99.90
3488;DHT22;38546;48.170;11.724;2024-03-06T15:17:56;6.50;99.90
3488;DHT22;38546;48.170;11.724;2024-03-06T15:20:29;6.40;99.90
3488;DHT22;38546;48.170;11.724;2024-03-06T15:23:00;6.40;99.90
3488;DHT22;38546;48.170;11.724;2024-03-06T15:25:32;6.40;99.90
3488;DHT22;38546;48.170;11.724;2024-03-06T15:28:03;6.30;99.90
3488;DHT22;38546;48.170;11.724;2024-03-06T15:30:34;6.30;99.90
3488;DHT22;38546;48.170;11.724;2024-03-06T15:33:05;6.40;99.90
3488;DHT22;38546;48.170;11.724;2024-03-06T15:35:37;6.30;99.90
3488;DHT22;38546;48.170;11.724;2024-03-06T15:38:08;6.30;99.90
3488;DHT22;38546;48.170;11.724;2024-03-06T15:40:40;6.30;99.90
3488;DHT22;38546;48.170;11.724;2024-03-06T15:43:10;6.30;99.90
3488;DHT22;38546;48.170;11.724;2024-03-06T15:45:41;6.20;99.90
3488;DHT22;38546;48.170;11.724;2024-03-06T15:48:12;6.20;99.90
3488;DHT22;38546;48.170;11.724;2024-03-06T15:50:44;6.30;99.90
3488;DHT22;38546;48.170;11.724;2024-03-06T15:53:14;6.30;99.90
3488;DHT22;38546;48.170;11.724;2024-03-06T15:55:45;6.20;99.90
3488;DHT22;38546;48.170;11.724;2024-03-06T15:58:16;6.10;99.90
3488;DHT22;38546;48.170;11.724;2024-03-06T16:00:46;6.20;99.90
3488;DHT22;38546;48.170;11.724;2024-03-06T16:03:17;6.20;99.90
3488;DHT22;38546;48.170;11.724;2024-03-06T16:05:48;6.00;99.90
3488;DHT22;38546;48.170;11.724;2024-03-06T16:08:19;6.00;99.90
3488;DHT22;38546;48.170;11.724;2024-03-06T16:10:51;5.90;99.90
3488;DHT22;38546;48.170;11.724;2024-03-06T16:13:22;5.80;99.90